createdAt,value
2023-01-17T00:02:25.167Z,-0.50
2023-01-17T00:05:11.241Z,-0.50
2023-01-17T00:07:57.507Z,-0.60
2023-01-17T00:10:28.112Z,-0.60
2023-01-17T00:13:03.682Z,-0.60
2023-01-17T00:15:32.119Z,-0.60
2023-01-17T00:18:00.008Z,-0.50
2023-01-17T00:20:49.139Z,-0.50
2023-01-17T00:23:43.119Z,-0.50
2023-01-17T00:26:19.234Z,-0.40
2023-01-17T00:28:49.188Z,-0.40
2023-01-17T00:31:17.372Z,-0.40
2023-01-17T00:33:45.641Z,-0.40
2023-01-17T00:36:13.164Z,-0.40
2023-01-17T00:38:41.120Z,-0.40
2023-01-17T00:41:11.077Z,-0.40
2023-01-17T00:43:57.458Z,-0.50
2023-01-17T00:46:43.564Z,-0.60
2023-01-17T00:49:29.816Z,-0.60
2023-01-17T00:55:02.134Z,-0.60
2023-01-17T00:57:48.427Z,-0.70
2023-01-17T01:00:39.389Z,-0.90
2023-01-17T01:03:30.146Z,-0.90
2023-01-17T01:09:03.044Z,-0.90
2023-01-17T01:11:49.065Z,-0.80
2023-01-17T01:17:22.011Z,-0.90
2023-01-17T01:20:08.385Z,-0.90
2023-01-17T01:25:40.917Z,-1.00
2023-01-17T01:28:31.943Z,-1.00
2023-01-17T01:31:19.053Z,-1.10
2023-01-17T01:33:46.694Z,-1.10
2023-01-17T01:36:15.478Z,-1.20
2023-01-17T01:41:10.875Z,-1.20
2023-01-17T01:43:57.003Z,-1.30
2023-01-17T01:46:37.763Z,-1.30
2023-01-17T01:49:18.041Z,-1.40
2023-01-17T01:51:51.901Z,-1.40
2023-01-17T01:54:23.870Z,-1.50
2023-01-17T01:59:22.653Z,-1.50
2023-01-17T02:01:53.142Z,-1.50
2023-01-17T02:04:22.721Z,-1.50
2023-01-17T02:06:56.054Z,-1.50
2023-01-17T02:09:24.317Z,-1.50
2023-01-17T02:11:51.885Z,-1.50
2023-01-17T02:14:21.657Z,-1.60
2023-01-17T02:17:18.854Z,-1.60
2023-01-17T02:20:04.783Z,-1.70
2023-01-17T02:23:10.487Z,-1.70
2023-01-17T02:28:53.393Z,-1.70
2023-01-17T02:31:29.742Z,-1.70
2023-01-17T02:34:00.460Z,-1.80
2023-01-17T02:36:36.402Z,-1.70
2023-01-17T02:39:13.465Z,-1.70
2023-01-17T02:41:44.294Z,-1.80
2023-01-17T02:44:17.085Z,-1.70
2023-01-17T02:46:54.074Z,-1.70
2023-01-17T02:49:26.689Z,-1.70
2023-01-17T02:52:13.067Z,-1.70
2023-01-17T02:57:20.219Z,-1.80
2023-01-17T03:00:16.586Z,-1.70
2023-01-17T03:05:23.574Z,-1.60
2023-01-17T03:07:52.070Z,-1.60
2023-01-17T03:10:21.122Z,-1.50
2023-01-17T03:12:48.662Z,-1.50
2023-01-17T03:15:20.183Z,-1.50
2023-01-17T03:17:49.443Z,-1.40
2023-01-17T03:20:17.492Z,-1.40
2023-01-17T03:22:45.067Z,-1.30
2023-01-17T03:25:12.686Z,-1.30
2023-01-17T03:27:40.869Z,-1.30
2023-01-17T03:30:09.002Z,-1.40
2023-01-17T03:32:36.543Z,-1.40
2023-01-17T03:42:27.788Z,-1.60
2023-01-17T03:44:55.285Z,-1.60
2023-01-17T03:47:22.875Z,-1.70
2023-01-17T03:49:51.791Z,-1.70
2023-01-17T03:52:19.346Z,-1.70
2023-01-17T03:54:46.884Z,-1.70
2023-01-17T03:57:14.476Z,-1.70
2023-01-17T04:09:34.589Z,-2.10
2023-01-17T04:12:03.471Z,-2.10
2023-01-17T04:14:31.158Z,-2.20
2023-01-17T04:19:41.317Z,-2.10
2023-01-17T04:22:08.995Z,-2.10
2023-01-17T04:24:36.751Z,-1.90
2023-01-17T04:27:05.164Z,-1.90
2023-01-17T04:29:32.733Z,-2.00
2023-01-17T04:41:51.738Z,-2.30
2023-01-17T04:44:19.356Z,-2.30
2023-01-17T04:49:14.644Z,-2.40
2023-01-17T04:54:10.551Z,-2.50
2023-01-17T04:59:07.265Z,-2.60
2023-01-17T05:01:34.967Z,-2.60
2023-01-17T05:04:02.586Z,-2.80
2023-01-17T05:11:26.519Z,-2.50
2023-01-17T05:18:53.596Z,-2.30
2023-01-17T05:21:22.201Z,-2.30
2023-01-17T05:33:41.780Z,-2.30
2023-01-17T05:36:09.596Z,-2.30
2023-01-17T05:38:37.111Z,-2.30
2023-01-17T05:41:05.173Z,-2.30
2023-01-17T05:43:32.694Z,-2.30
2023-01-17T05:55:51.701Z,-2.10
2023-01-17T05:58:22.821Z,-2.10
2023-01-17T06:00:50.540Z,-2.10
2023-01-17T06:08:14.336Z,-1.90
2023-01-17T06:13:15.391Z,-1.80
2023-01-17T06:15:43.093Z,-1.70
2023-01-17T06:18:13.063Z,-1.70
2023-01-17T06:20:41.002Z,-1.70
2023-01-17T06:23:12.820Z,-1.70
2023-01-17T06:25:45.610Z,-1.70
2023-01-17T06:28:15.643Z,-1.60
2023-01-17T06:30:46.351Z,-1.60
2023-01-17T06:35:52.535Z,-1.50
2023-01-17T06:38:20.726Z,-1.40
2023-01-17T06:40:48.360Z,-1.30
2023-01-17T06:45:43.790Z,-1.20
2023-01-17T06:50:39.290Z,-1.00
2023-01-17T06:53:07.296Z,-1.00
2023-01-17T06:55:37.193Z,-0.90
2023-01-17T06:58:04.798Z,-0.80
2023-01-17T07:00:35.161Z,-0.80
2023-01-17T07:03:03.091Z,-0.80
2023-01-17T07:05:30.879Z,-0.80
2023-01-17T07:07:58.519Z,-0.70
2023-01-17T07:12:59.830Z,-0.70
2023-01-17T07:15:27.733Z,-0.70
2023-01-17T07:17:55.279Z,-0.70
2023-01-17T07:20:22.851Z,-0.60
2023-01-17T07:22:50.324Z,-0.60
2023-01-17T07:27:47.896Z,-0.60
2023-01-17T07:30:15.721Z,-0.60
2023-01-17T07:32:43.236Z,-0.60
2023-01-17T07:35:10.806Z,-0.60
2023-01-17T07:37:39.135Z,-0.50
2023-01-17T07:40:07.194Z,-0.50
2023-01-17T07:42:34.692Z,-0.50
2023-01-17T07:45:02.316Z,-0.50
2023-01-17T07:49:57.772Z,-0.50
2023-01-17T07:52:25.286Z,-0.40
2023-01-17T07:54:52.925Z,-0.40
2023-01-17T07:57:20.459Z,-0.40
2023-01-17T08:02:23.519Z,-0.40
2023-01-17T08:04:51.042Z,-0.40
2023-01-17T08:07:18.555Z,-0.40
2023-01-17T08:12:17.598Z,-0.50
2023-01-17T08:14:45.133Z,-0.50
2023-01-17T08:22:12.564Z,-0.50
2023-01-17T08:27:10.077Z,-0.60
2023-01-17T08:32:08.812Z,-0.60
2023-01-17T08:34:36.355Z,-0.60
2023-01-17T08:56:52.760Z,-0.80
2023-01-17T08:59:20.364Z,-0.80
2023-01-17T09:06:48.380Z,-0.80
2023-01-17T09:09:17.319Z,-0.80
2023-01-17T09:11:44.833Z,-0.80
2023-01-17T09:14:13.282Z,-0.70
2023-01-17T09:16:40.833Z,-0.60
2023-01-17T09:19:09.663Z,-0.40
2023-01-17T09:21:37.201Z,-0.30
2023-01-17T09:24:04.870Z,-0.30
2023-01-17T09:29:00.591Z,0.40
2023-01-17T09:31:28.614Z,1.10
2023-01-17T09:33:57.889Z,1.90
2023-01-17T09:36:31.923Z,2.80
2023-01-17T09:39:00.550Z,3.60
2023-01-17T09:41:53.323Z,4.20
2023-01-17T09:44:44.032Z,4.70
2023-01-17T09:47:36.339Z,5.00
2023-01-17T09:50:15.877Z,5.10
2023-01-17T09:52:44.140Z,5.20
2023-01-17T09:55:16.713Z,5.20
2023-01-17T09:57:57.025Z,5.40
2023-01-17T10:00:49.107Z,5.60
2023-01-17T10:03:19.780Z,5.50
2023-01-17T10:06:12.334Z,5.30
2023-01-17T10:09:05.015Z,5.50
2023-01-17T10:12:03.130Z,5.80
2023-01-17T10:15:03.145Z,6.40
2023-01-17T10:17:51.703Z,7.30
2023-01-17T10:20:34.146Z,8.30
2023-01-17T10:23:22.130Z,9.00
2023-01-17T10:25:56.152Z,9.10
2023-01-17T10:28:23.676Z,10.20
2023-01-17T10:30:54.540Z,10.20
2023-01-17T10:33:28.452Z,10.80
2023-01-17T10:36:07.646Z,11.30
2023-01-17T10:38:37.773Z,11.90
2023-01-17T10:41:15.806Z,12.00
2023-01-17T10:43:56.178Z,12.50
2023-01-17T10:46:30.551Z,12.60
2023-01-17T10:48:58.731Z,13.10
2023-01-17T10:51:31.817Z,13.10
2023-01-17T10:54:14.004Z,13.10
2023-01-17T10:56:42.029Z,13.10
2023-01-17T10:59:09.480Z,13.00
2023-01-17T11:01:37.160Z,13.00
2023-01-17T11:04:21.199Z,13.10
2023-01-17T11:07:14.482Z,13.10
2023-01-17T11:09:44.519Z,13.30
2023-01-17T11:12:35.369Z,13.40
2023-01-17T11:15:09.081Z,13.40
2023-01-17T11:18:05.789Z,13.80
2023-01-17T11:20:39.492Z,14.00
2023-01-17T11:23:15.733Z,14.00
2023-01-17T11:25:51.231Z,14.30
2023-01-17T11:28:30.467Z,14.40
2023-01-17T11:31:00.491Z,14.40
2023-01-17T11:33:47.780Z,14.30
2023-01-17T11:36:27.543Z,14.10
2023-01-17T11:38:55.277Z,13.80
2023-01-17T11:41:23.850Z,13.80
2023-01-17T11:43:57.254Z,13.90
2023-01-17T11:46:25.905Z,14.00
2023-01-17T11:48:56.471Z,13.90
2023-01-17T11:51:29.756Z,13.90
2023-01-17T11:54:17.890Z,14.60
2023-01-17T11:56:46.472Z,14.60
2023-01-17T11:59:34.834Z,15.00
2023-01-17T12:02:44.432Z,15.10
2023-01-17T12:05:33.760Z,15.10
2023-01-17T12:08:25.932Z,15.10
2023-01-17T12:11:18.940Z,15.10
2023-01-17T12:14:07.114Z,14.80
2023-01-17T12:16:39.816Z,14.70
2023-01-17T12:19:32.247Z,14.70
2023-01-17T12:22:02.751Z,14.60
2023-01-17T12:24:54.339Z,14.20
2023-01-17T12:27:29.169Z,14.20
2023-01-17T12:30:25.744Z,13.90
2023-01-17T12:33:08.238Z,13.90
2023-01-17T12:38:14.047Z,14.30
2023-01-17T12:40:51.922Z,14.00
2023-01-17T12:43:44.326Z,14.00
2023-01-17T12:46:23.594Z,13.90
2023-01-17T12:48:55.607Z,13.80
2023-01-17T12:51:33.471Z,13.20
2023-01-17T12:54:14.998Z,12.70
2023-01-17T12:56:53.621Z,12.70
2023-01-17T12:59:32.728Z,12.90
2023-01-17T13:02:04.349Z,12.60
2023-01-17T13:04:58.468Z,12.60
2023-01-17T13:07:26.331Z,12.60
2023-01-17T13:10:00.618Z,12.80
2023-01-17T13:12:32.534Z,13.10
2023-01-17T13:15:03.081Z,13.50
2023-01-17T13:17:45.019Z,13.90
2023-01-17T13:20:28.840Z,14.00
2023-01-17T13:23:07.877Z,14.00
2023-01-17T13:25:45.000Z,13.60
2023-01-17T13:28:27.798Z,13.00
2023-01-17T13:31:04.529Z,13.00
2023-01-17T13:33:53.747Z,13.40
2023-01-17T13:36:29.941Z,13.50
2023-01-17T13:39:34.881Z,13.50
2023-01-17T13:44:32.017Z,12.90
2023-01-17T13:47:27.570Z,13.00
2023-01-17T13:49:56.715Z,13.40
2023-01-17T13:52:24.305Z,13.70
2023-01-17T13:55:03.330Z,13.80
2023-01-17T13:57:40.108Z,13.40
2023-01-17T14:00:21.678Z,12.40
2023-01-17T14:02:51.147Z,11.60
2023-01-17T14:05:41.774Z,11.30
2023-01-17T14:08:18.726Z,11.20
2023-01-17T14:10:53.169Z,11.40
2023-01-17T14:13:35.734Z,11.70
2023-01-17T14:16:26.276Z,11.50
2023-01-17T14:18:55.171Z,11.50
2023-01-17T14:21:33.446Z,11.60
2023-01-17T14:24:14.978Z,11.50
2023-01-17T14:26:47.233Z,11.30
2023-01-17T14:29:44.320Z,11.50
2023-01-17T14:32:24.170Z,11.90
2023-01-17T14:34:53.837Z,12.30
2023-01-17T14:37:29.446Z,11.90
2023-01-17T14:39:57.076Z,10.90
2023-01-17T14:42:27.887Z,10.10
2023-01-17T14:45:04.289Z,9.40
2023-01-17T14:47:39.349Z,8.70
2023-01-17T14:50:37.732Z,8.20
2023-01-17T14:53:14.118Z,8.50
2023-01-17T14:55:47.403Z,8.90
2023-01-17T14:58:19.033Z,8.70
2023-01-17T15:00:47.074Z,8.70
2023-01-17T15:03:14.612Z,8.60
2023-01-17T15:05:46.038Z,8.60
2023-01-17T15:08:16.905Z,8.20
2023-01-17T15:10:58.680Z,7.50
2023-01-17T15:13:49.485Z,6.80
2023-01-17T15:16:21.402Z,6.20
2023-01-17T15:18:49.703Z,5.80
2023-01-17T15:21:20.420Z,5.50
2023-01-17T15:23:55.331Z,5.20
2023-01-17T15:26:27.144Z,5.00
2023-01-17T15:29:02.173Z,4.90
2023-01-17T15:31:45.591Z,5.20
2023-01-17T15:34:35.896Z,5.80
2023-01-17T15:37:35.956Z,6.40
2023-01-17T15:40:08.071Z,6.70
2023-01-17T15:42:38.638Z,6.30
2023-01-17T15:45:11.457Z,6.00
2023-01-17T15:47:39.494Z,5.60
2023-01-17T15:50:28.505Z,5.00
2023-01-17T15:53:02.417Z,4.70
2023-01-17T15:55:33.091Z,4.30
2023-01-17T16:00:38.342Z,3.70
2023-01-17T16:03:23.008Z,3.30
2023-01-17T16:05:52.619Z,3.10
2023-01-17T16:08:38.728Z,2.90
2023-01-17T16:11:08.622Z,2.80
2023-01-17T16:13:39.106Z,2.70
2023-01-17T16:16:10.607Z,2.50
2023-01-17T16:21:21.996Z,2.30
2023-01-17T16:23:50.371Z,2.20
2023-01-17T16:28:46.685Z,2.10
2023-01-17T16:36:15.343Z,1.90
2023-01-17T16:38:48.425Z,1.90
2023-01-17T16:46:12.851Z,1.80
2023-01-17T16:48:40.500Z,1.90
2023-01-17T16:51:08.645Z,1.90
2023-01-17T16:56:12.327Z,2.00
2023-01-17T16:58:40.854Z,1.90
2023-01-17T17:01:15.885Z,1.90
2023-01-17T17:03:44.438Z,1.80
2023-01-17T17:06:13.014Z,1.90
2023-01-17T17:08:40.613Z,1.80
2023-01-17T17:11:14.123Z,1.80
2023-01-17T17:13:44.445Z,1.70
2023-01-17T17:16:23.845Z,1.70
2023-01-17T17:19:02.843Z,1.60
2023-01-17T17:21:32.581Z,1.50
2023-01-17T17:24:01.581Z,1.50
2023-01-17T17:26:34.955Z,1.50
2023-01-17T17:29:03.987Z,1.50
2023-01-17T17:31:31.837Z,1.50
2023-01-17T17:34:01.034Z,1.50
2023-01-17T17:36:29.360Z,1.50
2023-01-17T17:38:58.023Z,1.50
2023-01-17T17:41:34.235Z,1.40
2023-01-17T17:44:03.259Z,1.40
2023-01-17T17:46:31.990Z,1.40
2023-01-17T17:49:00.616Z,1.30
2023-01-17T17:51:33.357Z,1.30
2023-01-17T17:54:04.723Z,1.30
2023-01-17T17:56:33.557Z,1.30
2023-01-17T17:59:02.563Z,1.20
2023-01-17T18:04:02.530Z,1.50
2023-01-17T18:11:27.554Z,1.70
2023-01-17T18:13:57.234Z,1.80
2023-01-17T18:16:30.753Z,1.80
2023-01-17T18:18:59.386Z,1.80
2023-01-17T18:21:32.796Z,1.90
2023-01-17T18:24:03.727Z,1.90
2023-01-17T18:26:34.275Z,1.90
2023-01-17T18:31:31.531Z,1.80
2023-01-17T18:34:03.166Z,1.90
2023-01-17T18:36:31.070Z,1.90
2023-01-17T18:38:58.689Z,1.90
2023-01-17T18:41:29.263Z,1.80
2023-01-17T18:43:58.003Z,1.70
2023-01-17T18:46:26.686Z,1.80
2023-01-17T18:48:57.368Z,1.80
2023-01-17T18:51:26.019Z,1.80
2023-01-17T18:53:54.053Z,1.90
2023-01-17T18:56:23.206Z,1.90
2023-01-17T18:58:51.294Z,1.80
2023-01-17T19:01:20.406Z,1.80
2023-01-17T19:03:49.610Z,1.80
2023-01-17T19:06:23.666Z,1.80
2023-01-17T19:11:21.879Z,1.70
2023-01-17T19:13:50.345Z,1.70
2023-01-17T19:16:21.100Z,1.70
2023-01-17T19:18:48.709Z,1.70
2023-01-17T19:21:20.939Z,2.30
2023-01-17T19:23:50.457Z,1.70
2023-01-17T19:26:20.432Z,1.70
2023-01-17T19:28:49.029Z,1.60
2023-01-17T19:31:23.037Z,1.60
2023-01-17T19:33:53.487Z,1.60
2023-01-17T19:36:28.983Z,1.50
2023-01-17T19:41:40.566Z,1.60
2023-01-17T19:44:09.810Z,1.60
2023-01-17T19:46:37.720Z,1.70
2023-01-17T19:49:07.921Z,1.70
2023-01-17T19:51:36.109Z,1.70
2023-01-17T19:54:06.442Z,1.60
2023-01-17T19:59:02.508Z,1.50
2023-01-17T20:01:32.783Z,1.50
2023-01-17T20:04:02.053Z,1.40
2023-01-17T20:06:32.397Z,1.30
2023-01-17T20:11:28.979Z,1.30
2023-01-17T20:13:58.778Z,1.20
2023-01-17T20:16:28.284Z,1.30
2023-01-17T20:21:26.029Z,1.20
2023-01-17T20:23:54.752Z,1.20
2023-01-17T20:26:29.097Z,1.20
2023-01-17T20:28:57.059Z,1.30
2023-01-17T20:31:25.587Z,1.30
2023-01-17T20:33:55.431Z,1.30
2023-01-17T20:36:25.539Z,1.30
2023-01-17T20:38:54.573Z,1.40
2023-01-17T20:41:24.863Z,1.50
2023-01-17T20:43:55.938Z,1.60
2023-01-17T20:46:26.035Z,1.60
2023-01-17T20:48:56.707Z,1.70
2023-01-17T20:51:26.383Z,1.70
2023-01-17T20:53:56.372Z,1.70
2023-01-17T20:56:24.865Z,1.70
2023-01-17T20:58:54.266Z,1.60
2023-01-17T21:03:53.921Z,1.50
2023-01-17T21:06:23.021Z,1.50
2023-01-17T21:08:51.595Z,1.40
2023-01-17T21:11:21.936Z,1.40
2023-01-17T21:13:49.898Z,1.30
2023-01-17T21:16:20.341Z,1.30
2023-01-17T21:18:50.032Z,1.30
2023-01-17T21:21:23.267Z,1.30
2023-01-17T21:23:52.980Z,1.20
2023-01-17T21:26:22.282Z,1.20
2023-01-17T21:31:28.065Z,1.10
2023-01-17T21:33:58.670Z,1.10
2023-01-17T21:36:28.764Z,1.10
2023-01-17T21:38:58.363Z,1.00
2023-01-17T21:41:31.388Z,1.00
2023-01-17T21:44:01.719Z,1.00
2023-01-17T21:46:30.249Z,1.10
2023-01-17T21:51:46.688Z,1.30
2023-01-17T21:59:31.094Z,1.50
2023-01-17T22:04:27.432Z,1.60
2023-01-17T22:06:54.909Z,1.60
2023-01-17T22:16:48.651Z,1.30
2023-01-17T22:19:17.071Z,1.20
2023-01-17T22:24:13.720Z,1.00
2023-01-17T22:26:42.016Z,1.00
2023-01-17T22:29:10.809Z,1.00
2023-01-17T22:36:34.638Z,1.00
2023-01-17T22:41:31.299Z,1.10
2023-01-17T22:44:02.118Z,1.10
2023-01-17T22:46:31.859Z,1.00
2023-01-17T22:49:00.118Z,1.00
2023-01-17T22:51:28.802Z,1.00
2023-01-17T22:53:59.266Z,1.00
2023-01-17T22:56:29.517Z,1.00
2023-01-17T22:58:59.070Z,1.00
2023-01-17T23:01:29.461Z,1.10
2023-01-17T23:04:02.542Z,1.10
2023-01-17T23:06:36.335Z,1.10
2023-01-17T23:09:11.265Z,1.10
2023-01-17T23:11:49.912Z,1.10
2023-01-17T23:14:19.017Z,1.10
2023-01-17T23:17:11.155Z,1.00
2023-01-17T23:19:43.739Z,1.00
2023-01-17T23:22:17.390Z,1.00
2023-01-17T23:25:14.670Z,1.00
2023-01-17T23:28:05.498Z,0.90
2023-01-17T23:30:40.288Z,0.90
2023-01-17T23:33:16.100Z,0.90
2023-01-17T23:35:45.691Z,0.90
2023-01-17T23:38:29.455Z,1.00
2023-01-17T23:41:21.457Z,1.10
2023-01-17T23:43:56.316Z,1.10
2023-01-17T23:46:25.470Z,1.20
2023-01-17T23:51:22.807Z,1.30
2023-01-17T23:56:24.634Z,1.20
